createdAt,value
2019-04-14T00:03:36.907Z,6.20
2019-04-14T00:08:13.357Z,6.20
2019-04-14T00:12:49.337Z,6.30
2019-04-14T00:17:26.209Z,6.30
2019-04-14T00:22:03.272Z,6.30
2019-04-14T00:26:40.085Z,6.30
2019-04-14T00:31:17.165Z,6.30
2019-04-14T00:36:04.391Z,6.30
2019-04-14T00:40:45.798Z,6.30
2019-04-14T00:45:37.002Z,6.20
2019-04-14T00:50:07.991Z,6.20
2019-04-14T00:54:43.949Z,6.20
2019-04-14T00:59:20.069Z,6.10
2019-04-14T01:03:56.867Z,6.10
2019-04-14T01:08:33.515Z,6.10
2019-04-14T01:13:11.111Z,6.10
2019-04-14T01:17:46.797Z,6.20
2019-04-14T01:22:22.824Z,6.10
2019-04-14T01:26:59.540Z,6.10
2019-04-14T01:31:35.998Z,6.20
2019-04-14T01:36:12.761Z,6.10
2019-04-14T01:40:48.862Z,6.20
2019-04-14T01:45:25.332Z,6.00
2019-04-14T01:50:01.804Z,6.00
2019-04-14T01:54:56.139Z,5.90
2019-04-14T01:59:32.652Z,5.70
2019-04-14T02:04:09.500Z,5.60
2019-04-14T02:08:45.852Z,5.60
2019-04-14T02:13:22.516Z,5.60
2019-04-14T02:17:58.916Z,5.80
2019-04-14T02:22:35.600Z,5.90
2019-04-14T02:27:12.071Z,5.90
2019-04-14T02:32:18.533Z,5.60
2019-04-14T02:36:57.094Z,5.70
2019-04-14T02:41:35.744Z,5.90
2019-04-14T02:46:05.837Z,5.80
2019-04-14T02:50:38.535Z,5.80
2019-04-14T02:55:18.960Z,5.70
2019-04-14T02:59:59.600Z,5.90
2019-04-14T03:04:35.584Z,5.90
2019-04-14T03:13:51.431Z,5.80
2019-04-14T03:18:48.391Z,6.00
2019-04-14T03:23:32.945Z,5.90
2019-04-14T03:28:28.337Z,5.80
2019-04-14T03:37:46.857Z,5.80
2019-04-14T03:42:21.447Z,5.90
2019-04-14T03:47:07.190Z,5.90
2019-04-14T03:56:17.650Z,5.90
2019-04-14T04:00:53.565Z,5.90
2019-04-14T04:05:30.280Z,5.80
2019-04-14T04:10:11.830Z,5.80
2019-04-14T04:14:48.545Z,5.90
2019-04-14T04:19:38.329Z,5.90
2019-04-14T04:24:33.498Z,5.90
2019-04-14T04:29:17.918Z,6.00
2019-04-14T04:33:58.868Z,6.00
2019-04-14T04:38:37.728Z,6.00
2019-04-14T04:43:14.614Z,5.90
2019-04-14T04:47:51.292Z,5.70
2019-04-14T04:52:28.037Z,5.90
2019-04-14T04:57:04.650Z,5.70
2019-04-14T05:01:40.777Z,5.80
2019-04-14T05:07:09.972Z,5.80
2019-04-14T05:12:04.743Z,5.80
2019-04-14T05:16:41.852Z,5.70
2019-04-14T05:21:17.701Z,5.60
2019-04-14T05:25:53.907Z,5.60
2019-04-14T05:30:30.661Z,5.50
2019-04-14T05:35:07.458Z,5.50
2019-04-14T05:39:44.026Z,5.30
2019-04-14T05:44:20.758Z,5.30
2019-04-14T05:48:57.786Z,5.30
2019-04-14T05:53:34.998Z,5.20
2019-04-14T05:58:12.091Z,5.20
2019-04-14T06:02:48.526Z,5.00
2019-04-14T06:07:24.390Z,4.80
2019-04-14T06:12:00.195Z,4.80
2019-04-14T06:16:35.960Z,4.80
2019-04-14T06:21:11.791Z,4.70
2019-04-14T06:25:47.552Z,4.60
2019-04-14T06:30:54.440Z,4.70
2019-04-14T06:35:34.160Z,4.90
2019-04-14T06:40:10.021Z,4.90
2019-04-14T06:44:45.787Z,5.00
2019-04-14T06:49:21.568Z,5.10
2019-04-14T06:53:57.342Z,5.10
2019-04-14T06:58:33.158Z,5.20
2019-04-14T07:03:08.933Z,5.10
2019-04-14T07:07:56.216Z,5.10
2019-04-14T07:12:22.169Z,5.10
2019-04-14T07:16:58.001Z,5.20
2019-04-14T07:21:33.785Z,5.10
2019-04-14T07:26:09.569Z,5.10
2019-04-14T07:31:02.618Z,5.00
2019-04-14T07:36:10.637Z,5.20
2019-04-14T07:41:03.145Z,5.30
2019-04-14T07:45:50.682Z,5.10
2019-04-14T07:50:37.964Z,4.80
2019-04-14T07:55:18.129Z,4.60
2019-04-14T08:00:08.812Z,4.60
2019-04-14T08:04:54.793Z,4.50
2019-04-14T08:09:30.560Z,4.30
2019-04-14T08:14:06.358Z,4.40
2019-04-14T08:18:42.105Z,4.50
2019-04-14T08:23:18.011Z,4.50
2019-04-14T08:27:54.872Z,4.70
2019-04-14T08:32:30.697Z,4.60
2019-04-14T08:37:06.465Z,4.60
2019-04-14T08:41:50.065Z,4.80
2019-04-14T08:46:56.613Z,4.80
2019-04-14T08:51:46.694Z,4.70
2019-04-14T08:56:33.421Z,4.50
2019-04-14T09:01:16.819Z,4.50
2019-04-14T09:06:10.008Z,4.40
2019-04-14T09:10:48.384Z,4.40
2019-04-14T09:15:24.152Z,4.30
2019-04-14T09:19:59.914Z,4.60
2019-04-14T09:24:35.726Z,4.40
2019-04-14T09:29:11.470Z,4.40
2019-04-14T09:33:47.241Z,4.30
2019-04-14T09:38:22.996Z,4.30
2019-04-14T09:43:02.114Z,4.20
2019-04-14T09:47:37.864Z,4.30
2019-04-14T09:52:13.709Z,4.10
2019-04-14T09:56:49.461Z,4.00
2019-04-14T10:01:25.274Z,3.90
2019-04-14T10:06:01.083Z,4.00
2019-04-14T10:10:36.934Z,4.10
2019-04-14T10:15:12.926Z,4.20
2019-04-14T10:19:48.693Z,4.30
2019-04-14T10:24:24.456Z,4.30
2019-04-14T10:29:00.341Z,4.00
2019-04-14T10:33:36.128Z,3.90
2019-04-14T10:38:11.901Z,3.90
2019-04-14T10:42:47.673Z,4.10
2019-04-14T10:47:23.517Z,4.10
2019-04-14T10:51:59.297Z,4.10
2019-04-14T10:56:35.075Z,4.10
2019-04-14T11:01:10.837Z,4.20
2019-04-14T11:06:03.084Z,4.30
2019-04-14T11:10:38.829Z,4.40
2019-04-14T11:15:15.602Z,4.40
2019-04-14T11:19:51.424Z,4.50
2019-04-14T11:24:30.366Z,4.40
2019-04-14T11:29:06.154Z,4.30
2019-04-14T11:34:00.088Z,4.30
2019-04-14T11:38:47.529Z,4.30
2019-04-14T11:43:23.322Z,4.40
2019-04-14T11:47:59.159Z,4.40
2019-04-14T11:52:35.795Z,4.50
2019-04-14T11:57:11.577Z,4.60
2019-04-14T12:02:14.204Z,4.70
2019-04-14T12:07:08.946Z,4.80
2019-04-14T12:11:44.740Z,5.00
2019-04-14T12:16:20.493Z,4.90
2019-04-14T12:20:56.292Z,4.90
2019-04-14T12:25:32.117Z,4.70
2019-04-14T12:30:11.043Z,4.80
2019-04-14T12:34:46.977Z,4.70
2019-04-14T12:39:24.300Z,4.60
2019-04-14T12:44:27.789Z,4.60
2019-04-14T12:49:22.507Z,4.60
2019-04-14T12:53:58.289Z,4.50
2019-04-14T12:58:44.613Z,4.50
2019-04-14T13:03:21.260Z,4.80
2019-04-14T13:07:57.032Z,4.80
2019-04-14T13:12:32.829Z,4.90
2019-04-14T13:17:08.698Z,4.90
2019-04-14T13:21:44.478Z,4.90
2019-04-14T13:26:20.266Z,5.00
2019-04-14T13:30:56.129Z,5.10
2019-04-14T13:35:31.877Z,5.20
2019-04-14T13:40:07.972Z,5.20
2019-04-14T13:44:43.720Z,5.20
2019-04-14T13:49:19.514Z,5.30
2019-04-14T13:53:55.348Z,5.30
2019-04-14T13:58:31.143Z,5.30
2019-04-14T14:03:06.993Z,5.30
2019-04-14T14:07:42.818Z,5.30
2019-04-14T14:12:46.481Z,5.30
2019-04-14T14:17:45.148Z,5.40
2019-04-14T14:22:39.921Z,5.40
2019-04-14T14:27:24.514Z,5.40
2019-04-14T14:32:01.537Z,5.40
2019-04-14T14:36:37.322Z,5.20
2019-04-14T14:41:15.329Z,5.20
2019-04-14T14:46:08.397Z,5.20
2019-04-14T14:51:03.241Z,5.40
2019-04-14T14:55:39.009Z,5.30
2019-04-14T15:00:35.074Z,5.30
2019-04-14T15:05:10.902Z,5.30
2019-04-14T15:09:46.678Z,5.20
2019-04-14T15:14:22.440Z,5.10
2019-04-14T15:18:58.226Z,5.20
2019-04-14T15:23:33.993Z,5.10
2019-04-14T15:28:09.788Z,5.10
2019-04-14T15:32:45.621Z,5.10
2019-04-14T15:37:21.483Z,5.10
2019-04-14T15:41:57.246Z,5.10
2019-04-14T15:46:33.034Z,5.10
2019-04-14T15:51:08.816Z,5.20
2019-04-14T15:55:44.588Z,5.10
2019-04-14T16:00:37.657Z,5.00
2019-04-14T16:05:35.396Z,5.00
2019-04-14T16:10:17.508Z,5.00
2019-04-14T16:14:58.880Z,5.10
2019-04-14T16:19:47.617Z,5.10
2019-04-14T16:24:23.400Z,5.00
2019-04-14T16:29:07.149Z,5.00
2019-04-14T16:33:57.758Z,5.00
2019-04-14T16:38:33.508Z,5.00
2019-04-14T16:43:09.296Z,5.10
2019-04-14T16:47:45.049Z,5.10
2019-04-14T16:52:27.265Z,5.10
2019-04-14T16:57:29.189Z,5.10
2019-04-14T17:02:10.876Z,5.10
2019-04-14T17:06:42.679Z,5.20
2019-04-14T17:11:18.457Z,5.20
2019-04-14T17:16:06.514Z,5.10
2019-04-14T17:21:02.681Z,5.00
2019-04-14T17:25:51.272Z,4.80
2019-04-14T17:30:45.990Z,4.80
2019-04-14T17:35:39.344Z,5.00
2019-04-14T17:40:45.897Z,5.00
2019-04-14T17:45:41.821Z,4.80
2019-04-14T17:50:25.137Z,4.90
2019-04-14T17:55:19.831Z,4.90
2019-04-14T18:00:13.806Z,5.00
2019-04-14T18:05:06.853Z,4.90
2019-04-14T18:10:00.190Z,4.90
2019-04-14T18:14:40.640Z,4.90
2019-04-14T18:19:27.004Z,4.90
2019-04-14T18:24:02.989Z,4.90
2019-04-14T18:28:57.728Z,4.80
2019-04-14T18:34:01.346Z,4.90
2019-04-14T18:38:56.095Z,4.90
2019-04-14T18:43:53.685Z,5.00
2019-04-14T18:48:43.585Z,5.00
2019-04-14T18:53:35.243Z,4.90
2019-04-14T18:58:32.961Z,4.80
2019-04-14T19:03:08.939Z,4.90
2019-04-14T19:07:45.031Z,5.00
2019-04-14T19:12:38.392Z,5.10
2019-04-14T19:17:21.433Z,5.00
2019-04-14T19:21:57.285Z,5.00
2019-04-14T19:26:33.050Z,5.00
2019-04-14T19:31:08.829Z,5.00
2019-04-14T19:35:44.594Z,5.00
2019-04-14T19:40:20.385Z,4.80
2019-04-14T19:44:56.149Z,4.90
2019-04-14T19:49:31.929Z,4.90
2019-04-14T19:54:07.796Z,5.10
2019-04-14T19:58:43.578Z,5.10
2019-04-14T20:03:19.333Z,5.20
2019-04-14T20:07:55.112Z,5.10
2019-04-14T20:12:30.949Z,5.10
2019-04-14T20:17:25.654Z,5.20
2019-04-14T20:22:20.398Z,5.00
2019-04-14T20:27:04.012Z,5.10
2019-04-14T20:31:49.998Z,5.20
2019-04-14T20:36:25.779Z,5.20
2019-04-14T20:41:01.565Z,5.30
2019-04-14T20:45:37.341Z,5.40
2019-04-14T20:50:13.393Z,5.40
2019-04-14T20:54:49.169Z,5.40
2019-04-14T20:59:25.074Z,5.50
2019-04-14T21:04:19.809Z,5.50
2019-04-14T21:09:20.281Z,5.50
2019-04-14T21:14:17.787Z,5.40
2019-04-14T21:18:57.650Z,5.40
2019-04-14T21:24:07.249Z,5.50
2019-04-14T21:29:02.028Z,5.40
2019-04-14T21:34:02.266Z,5.30
2019-04-14T21:38:47.281Z,5.40
2019-04-14T21:43:24.383Z,5.10
2019-04-14T21:47:58.685Z,5.20
2019-04-14T21:52:45.397Z,5.30
2019-04-14T21:57:46.135Z,5.30
2019-04-14T22:02:39.303Z,5.30
2019-04-14T22:07:37.516Z,5.30
2019-04-14T22:12:13.717Z,5.20
2019-04-14T22:16:49.497Z,5.10
2019-04-14T22:21:25.288Z,5.20
2019-04-14T22:26:01.041Z,5.20
2019-04-14T22:30:36.818Z,5.40
2019-04-14T22:35:12.785Z,5.30
2019-04-14T22:39:48.664Z,5.30
2019-04-14T22:44:24.445Z,5.40
2019-04-14T22:49:00.316Z,5.20
2019-04-14T22:53:36.074Z,5.30
2019-04-14T22:58:11.921Z,5.30
2019-04-14T23:02:57.820Z,5.40
2019-04-14T23:07:42.709Z,5.30
2019-04-14T23:12:40.439Z,5.20
2019-04-14T23:17:40.922Z,5.30
2019-04-14T23:22:24.849Z,5.30
2019-04-14T23:27:00.676Z,5.50
2019-04-14T23:31:36.436Z,5.50
2019-04-14T23:36:12.224Z,5.40
2019-04-14T23:40:48.006Z,5.20
2019-04-14T23:45:23.808Z,5.10
2019-04-14T23:49:59.572Z,5.20
2019-04-14T23:54:35.343Z,5.10
2019-04-14T23:59:11.096Z,5.20
